sensor_id;sensor_type;location;lat;lon;timestamp;P1;durP1;ratioP1;P2;durP2;ratioP2
7471;SDS011;3777;48.722;8.110;2022-07-06T00:00:49;2.83;;;2.27;;
7471;SDS011;3777;48.722;8.110;2022-07-06T00:03:17;2.77;;;2.07;;
7471;SDS011;3777;48.722;8.110;2022-07-06T00:05:44;3.50;;;2.13;;
7471;SDS011;3777;48.722;8.110;2022-07-06T00:08:11;4.60;;;2.20;;
7471;SDS011;3777;48.722;8.110;2022-07-06T00:10:38;3.93;;;2.53;;
7471;SDS011;3777;48.722;8.110;2022-07-06T00:13:05;3.37;;;2.30;;
7471;SDS011;3777;48.722;8.110;2022-07-06T00:15:32;4.43;;;2.40;;
7471;SDS011;3777;48.722;8.110;2022-07-06T00:17:59;3.90;;;2.30;;
7471;SDS011;3777;48.722;8.110;2022-07-06T00:20:28;3.70;;;2.20;;
7471;SDS011;3777;48.722;8.110;2022-07-06T00:22:55;2.63;;;2.40;;
7471;SDS011;3777;48.722;8.110;2022-07-06T00:25:22;3.13;;;2.20;;
7471;SDS011;3777;48.722;8.110;2022-07-06T00:27:49;3.63;;;2.40;;
7471;SDS011;3777;48.722;8.110;2022-07-06T00:30:16;2.93;;;2.10;;
7471;SDS011;3777;48.722;8.110;2022-07-06T00:32:43;6.47;;;2.40;;
7471;SDS011;3777;48.722;8.110;2022-07-06T00:35:10;5.23;;;2.80;;
7471;SDS011;3777;48.722;8.110;2022-07-06T00:37:38;3.70;;;2.47;;
7471;SDS011;3777;48.722;8.110;2022-07-06T00:40:06;2.53;;;2.10;;
7471;SDS011;3777;48.722;8.110;2022-07-06T00:42:38;5.33;;;2.17;;
7471;SDS011;3777;48.722;8.110;2022-07-06T00:45:06;4.90;;;2.50;;
7471;SDS011;3777;48.722;8.110;2022-07-06T00:47:34;4.97;;;2.50;;
7471;SDS011;3777;48.722;8.110;2022-07-06T00:50:01;2.70;;;2.30;;
7471;SDS011;3777;48.722;8.110;2022-07-06T00:52:45;2.87;;;2.00;;
7471;SDS011;3777;48.722;8.110;2022-07-06T00:55:14;3.70;;;2.10;;
7471;SDS011;3777;48.722;8.110;2022-07-06T00:57:42;3.13;;;2.47;;
7471;SDS011;3777;48.722;8.110;2022-07-06T01:00:09;5.00;;;2.23;;
7471;SDS011;3777;48.722;8.110;2022-07-06T01:02:38;3.33;;;2.20;;
7471;SDS011;3777;48.722;8.110;2022-07-06T01:05:06;4.00;;;2.50;;
7471;SDS011;3777;48.722;8.110;2022-07-06T01:07:35;4.33;;;2.30;;
7471;SDS011;3777;48.722;8.110;2022-07-06T01:10:04;4.17;;;2.13;;
7471;SDS011;3777;48.722;8.110;2022-07-06T01:12:33;4.97;;;2.53;;
7471;SDS011;3777;48.722;8.110;2022-07-06T01:15:02;2.63;;;2.37;;
7471;SDS011;3777;48.722;8.110;2022-07-06T01:17:29;6.40;;;2.47;;
7471;SDS011;3777;48.722;8.110;2022-07-06T01:19:56;3.37;;;2.70;;
7471;SDS011;3777;48.722;8.110;2022-07-06T01:22:25;3.83;;;2.63;;
7471;SDS011;3777;48.722;8.110;2022-07-06T01:24:52;3.93;;;2.30;;
7471;SDS011;3777;48.722;8.110;2022-07-06T01:27:19;3.03;;;2.63;;
7471;SDS011;3777;48.722;8.110;2022-07-06T01:29:46;4.23;;;2.77;;
7471;SDS011;3777;48.722;8.110;2022-07-06T01:32:13;3.83;;;2.80;;
7471;SDS011;3777;48.722;8.110;2022-07-06T01:34:41;6.40;;;2.90;;
7471;SDS011;3777;48.722;8.110;2022-07-06T01:37:08;5.27;;;2.67;;
7471;SDS011;3777;48.722;8.110;2022-07-06T01:39:36;4.77;;;2.70;;
7471;SDS011;3777;48.722;8.110;2022-07-06T01:42:03;4.07;;;2.90;;
7471;SDS011;3777;48.722;8.110;2022-07-06T01:44:31;4.10;;;2.53;;
7471;SDS011;3777;48.722;8.110;2022-07-06T01:46:59;3.73;;;2.60;;
7471;SDS011;3777;48.722;8.110;2022-07-06T01:49:26;4.17;;;2.70;;
7471;SDS011;3777;48.722;8.110;2022-07-06T01:51:53;3.60;;;2.80;;
7471;SDS011;3777;48.722;8.110;2022-07-06T01:54:20;7.27;;;3.30;;
7471;SDS011;3777;48.722;8.110;2022-07-06T01:56:48;4.97;;;2.60;;
7471;SDS011;3777;48.722;8.110;2022-07-06T01:59:15;6.27;;;2.80;;
7471;SDS011;3777;48.722;8.110;2022-07-06T02:01:42;4.13;;;2.90;;
7471;SDS011;3777;48.722;8.110;2022-07-06T02:04:09;6.03;;;2.93;;
7471;SDS011;3777;48.722;8.110;2022-07-06T02:06:36;4.47;;;3.00;;
7471;SDS011;3777;48.722;8.110;2022-07-06T02:09:03;4.13;;;3.00;;
7471;SDS011;3777;48.722;8.110;2022-07-06T02:11:30;4.57;;;2.67;;
7471;SDS011;3777;48.722;8.110;2022-07-06T02:13:58;3.80;;;2.90;;
7471;SDS011;3777;48.722;8.110;2022-07-06T02:16:25;4.27;;;2.83;;
7471;SDS011;3777;48.722;8.110;2022-07-06T02:18:52;5.07;;;2.90;;
7471;SDS011;3777;48.722;8.110;2022-07-06T02:21:19;4.83;;;2.83;;
7471;SDS011;3777;48.722;8.110;2022-07-06T02:23:47;3.30;;;3.00;;
7471;SDS011;3777;48.722;8.110;2022-07-06T02:26:14;3.63;;;2.80;;
7471;SDS011;3777;48.722;8.110;2022-07-06T02:28:41;4.50;;;2.93;;
7471;SDS011;3777;48.722;8.110;2022-07-06T02:31:09;4.57;;;2.80;;
7471;SDS011;3777;48.722;8.110;2022-07-06T02:33:38;4.67;;;3.10;;
7471;SDS011;3777;48.722;8.110;2022-07-06T02:36:05;4.47;;;2.97;;
7471;SDS011;3777;48.722;8.110;2022-07-06T02:38:32;5.80;;;3.03;;
7471;SDS011;3777;48.722;8.110;2022-07-06T02:40:59;3.63;;;3.13;;
7471;SDS011;3777;48.722;8.110;2022-07-06T02:43:26;5.87;;;3.00;;
7471;SDS011;3777;48.722;8.110;2022-07-06T02:45:53;3.77;;;3.00;;
7471;SDS011;3777;48.722;8.110;2022-07-06T02:48:22;5.40;;;3.10;;
7471;SDS011;3777;48.722;8.110;2022-07-06T02:50:48;6.57;;;3.30;;
7471;SDS011;3777;48.722;8.110;2022-07-06T02:53:18;4.40;;;3.20;;
7471;SDS011;3777;48.722;8.110;2022-07-06T02:55:45;3.30;;;3.00;;
7471;SDS011;3777;48.722;8.110;2022-07-06T02:58:12;4.23;;;3.10;;
7471;SDS011;3777;48.722;8.110;2022-07-06T03:00:39;7.10;;;3.43;;
7471;SDS011;3777;48.722;8.110;2022-07-06T03:03:06;4.30;;;3.20;;
7471;SDS011;3777;48.722;8.110;2022-07-06T03:05:35;3.87;;;3.30;;
7471;SDS011;3777;48.722;8.110;2022-07-06T03:08:02;4.10;;;2.90;;
7471;SDS011;3777;48.722;8.110;2022-07-06T03:10:30;4.10;;;3.30;;
7471;SDS011;3777;48.722;8.110;2022-07-06T03:12:57;5.83;;;3.07;;
7471;SDS011;3777;48.722;8.110;2022-07-06T03:15:24;5.03;;;3.10;;
7471;SDS011;3777;48.722;8.110;2022-07-06T03:17:51;3.57;;;3.27;;
7471;SDS011;3777;48.722;8.110;2022-07-06T03:20:18;4.70;;;3.73;;
7471;SDS011;3777;48.722;8.110;2022-07-06T03:22:46;6.17;;;3.53;;
7471;SDS011;3777;48.722;8.110;2022-07-06T03:25:13;5.13;;;3.83;;
7471;SDS011;3777;48.722;8.110;2022-07-06T03:27:40;4.50;;;3.53;;
7471;SDS011;3777;48.722;8.110;2022-07-06T03:30:07;7.77;;;3.60;;
7471;SDS011;3777;48.722;8.110;2022-07-06T03:32:35;3.73;;;3.30;;
7471;SDS011;3777;48.722;8.110;2022-07-06T03:35:02;5.57;;;3.40;;
7471;SDS011;3777;48.722;8.110;2022-07-06T03:37:29;4.53;;;3.60;;
7471;SDS011;3777;48.722;8.110;2022-07-06T03:39:58;4.30;;;3.90;;
7471;SDS011;3777;48.722;8.110;2022-07-06T03:42:25;5.37;;;3.90;;
7471;SDS011;3777;48.722;8.110;2022-07-06T03:44:51;5.67;;;3.60;;
7471;SDS011;3777;48.722;8.110;2022-07-06T03:47:18;3.67;;;3.30;;
7471;SDS011;3777;48.722;8.110;2022-07-06T03:49:45;6.47;;;3.93;;
7471;SDS011;3777;48.722;8.110;2022-07-06T03:52:12;4.80;;;3.60;;
7471;SDS011;3777;48.722;8.110;2022-07-06T03:54:39;5.37;;;3.93;;
7471;SDS011;3777;48.722;8.110;2022-07-06T03:57:08;3.97;;;3.40;;
7471;SDS011;3777;48.722;8.110;2022-07-06T03:59:36;6.20;;;3.70;;
7471;SDS011;3777;48.722;8.110;2022-07-06T04:02:03;5.70;;;3.70;;
7471;SDS011;3777;48.722;8.110;2022-07-06T04:04:30;5.40;;;3.40;;
7471;SDS011;3777;48.722;8.110;2022-07-06T04:06:58;5.87;;;3.20;;
7471;SDS011;3777;48.722;8.110;2022-07-06T04:09:25;6.40;;;3.47;;
7471;SDS011;3777;48.722;8.110;2022-07-06T04:11:52;4.00;;;3.67;;
7471;SDS011;3777;48.722;8.110;2022-07-06T04:14:20;5.30;;;3.33;;
7471;SDS011;3777;48.722;8.110;2022-07-06T04:16:47;5.60;;;3.20;;
7471;SDS011;3777;48.722;8.110;2022-07-06T04:19:14;5.60;;;3.40;;
7471;SDS011;3777;48.722;8.110;2022-07-06T04:21:41;5.20;;;3.20;;
7471;SDS011;3777;48.722;8.110;2022-07-06T04:24:08;5.13;;;3.17;;
7471;SDS011;3777;48.722;8.110;2022-07-06T04:26:35;4.43;;;3.20;;
7471;SDS011;3777;48.722;8.110;2022-07-06T04:29:02;4.87;;;3.13;;
7471;SDS011;3777;48.722;8.110;2022-07-06T04:31:31;7.33;;;3.67;;
7471;SDS011;3777;48.722;8.110;2022-07-06T04:33:57;4.13;;;3.00;;
7471;SDS011;3777;48.722;8.110;2022-07-06T04:36:24;5.37;;;3.27;;
7471;SDS011;3777;48.722;8.110;2022-07-06T04:38:51;4.07;;;2.90;;
7471;SDS011;3777;48.722;8.110;2022-07-06T04:41:18;4.23;;;2.80;;
7471;SDS011;3777;48.722;8.110;2022-07-06T04:43:45;6.07;;;3.40;;
7471;SDS011;3777;48.722;8.110;2022-07-06T04:46:12;4.90;;;2.87;;
7471;SDS011;3777;48.722;8.110;2022-07-06T04:48:41;3.43;;;2.73;;
7471;SDS011;3777;48.722;8.110;2022-07-06T04:51:08;3.03;;;2.73;;
7471;SDS011;3777;48.722;8.110;2022-07-06T04:53:35;4.57;;;2.80;;
7471;SDS011;3777;48.722;8.110;2022-07-06T04:56:03;3.23;;;2.67;;
7471;SDS011;3777;48.722;8.110;2022-07-06T04:58:30;3.93;;;2.87;;
7471;SDS011;3777;48.722;8.110;2022-07-06T05:00:57;3.23;;;2.40;;
7471;SDS011;3777;48.722;8.110;2022-07-06T05:03:24;5.77;;;2.87;;
7471;SDS011;3777;48.722;8.110;2022-07-06T05:05:52;3.50;;;2.60;;
7471;SDS011;3777;48.722;8.110;2022-07-06T05:08:19;4.03;;;2.47;;
7471;SDS011;3777;48.722;8.110;2022-07-06T05:10:47;3.47;;;2.60;;
7471;SDS011;3777;48.722;8.110;2022-07-06T05:13:14;5.97;;;3.00;;
7471;SDS011;3777;48.722;8.110;2022-07-06T05:15:41;4.77;;;2.53;;
7471;SDS011;3777;48.722;8.110;2022-07-06T05:18:08;3.50;;;2.53;;
7471;SDS011;3777;48.722;8.110;2022-07-06T05:20:35;4.37;;;2.50;;
7471;SDS011;3777;48.722;8.110;2022-07-06T05:23:03;4.93;;;2.50;;
7471;SDS011;3777;48.722;8.110;2022-07-06T05:25:30;5.03;;;2.47;;
7471;SDS011;3777;48.722;8.110;2022-07-06T05:27:57;4.37;;;2.53;;
7471;SDS011;3777;48.722;8.110;2022-07-06T05:30:24;3.97;;;2.60;;
7471;SDS011;3777;48.722;8.110;2022-07-06T05:32:51;3.07;;;2.30;;
7471;SDS011;3777;48.722;8.110;2022-07-06T05:35:18;3.47;;;2.20;;
7471;SDS011;3777;48.722;8.110;2022-07-06T05:37:45;3.97;;;2.17;;
7471;SDS011;3777;48.722;8.110;2022-07-06T05:40:14;4.13;;;2.20;;
7471;SDS011;3777;48.722;8.110;2022-07-06T05:42:41;3.27;;;2.17;;
7471;SDS011;3777;48.722;8.110;2022-07-06T05:45:08;5.18;;;2.40;;
7471;SDS011;3777;48.722;8.110;2022-07-06T05:47:35;6.37;;;2.67;;
7471;SDS011;3777;48.722;8.110;2022-07-06T05:50:20;5.15;;;2.70;;
7471;SDS011;3777;48.722;8.110;2022-07-06T05:52:54;7.30;;;2.20;;
7471;SDS011;3777;48.722;8.110;2022-07-06T05:55:24;3.95;;;2.17;;
7471;SDS011;3777;48.722;8.110;2022-07-06T05:57:52;5.22;;;2.30;;
7471;SDS011;3777;48.722;8.110;2022-07-06T06:00:20;3.22;;;2.20;;
7471;SDS011;3777;48.722;8.110;2022-07-06T06:02:48;5.45;;;2.30;;
7471;SDS011;3777;48.722;8.110;2022-07-06T06:05:15;4.25;;;2.28;;
7471;SDS011;3777;48.722;8.110;2022-07-06T06:07:42;2.67;;;2.00;;
7471;SDS011;3777;48.722;8.110;2022-07-06T06:10:12;4.32;;;2.20;;
7471;SDS011;3777;48.722;8.110;2022-07-06T06:12:41;2.63;;;2.00;;
7471;SDS011;3777;48.722;8.110;2022-07-06T06:15:09;3.85;;;2.10;;
7471;SDS011;3777;48.722;8.110;2022-07-06T06:17:36;4.07;;;2.30;;
7471;SDS011;3777;48.722;8.110;2022-07-06T06:20:05;4.75;;;2.10;;
7471;SDS011;3777;48.722;8.110;2022-07-06T06:22:43;3.30;;;2.22;;
7471;SDS011;3777;48.722;8.110;2022-07-06T06:25:11;6.22;;;2.20;;
7471;SDS011;3777;48.722;8.110;2022-07-06T06:27:39;5.88;;;2.55;;
7471;SDS011;3777;48.722;8.110;2022-07-06T06:30:07;3.03;;;2.13;;
7471;SDS011;3777;48.722;8.110;2022-07-06T06:32:35;5.05;;;2.33;;
7471;SDS011;3777;48.722;8.110;2022-07-06T06:35:03;5.18;;;2.47;;
7471;SDS011;3777;48.722;8.110;2022-07-06T06:37:30;6.13;;;2.45;;
7471;SDS011;3777;48.722;8.110;2022-07-06T06:39:57;4.18;;;2.38;;
7471;SDS011;3777;48.722;8.110;2022-07-06T06:42:24;3.45;;;2.20;;
7471;SDS011;3777;48.722;8.110;2022-07-06T06:44:53;3.30;;;2.20;;
7471;SDS011;3777;48.722;8.110;2022-07-06T06:47:20;2.92;;;2.00;;
7471;SDS011;3777;48.722;8.110;2022-07-06T06:49:47;4.55;;;2.00;;
7471;SDS011;3777;48.722;8.110;2022-07-06T06:52:14;3.78;;;2.30;;
7471;SDS011;3777;48.722;8.110;2022-07-06T06:54:41;5.82;;;2.08;;
7471;SDS011;3777;48.722;8.110;2022-07-06T06:57:08;3.88;;;2.05;;
7471;SDS011;3777;48.722;8.110;2022-07-06T06:59:35;3.22;;;2.00;;
7471;SDS011;3777;48.722;8.110;2022-07-06T07:02:03;4.10;;;2.58;;
7471;SDS011;3777;48.722;8.110;2022-07-06T07:04:30;2.50;;;1.88;;
7471;SDS011;3777;48.722;8.110;2022-07-06T07:06:57;2.92;;;2.08;;
7471;SDS011;3777;48.722;8.110;2022-07-06T07:09:24;4.25;;;2.05;;
7471;SDS011;3777;48.722;8.110;2022-07-06T07:11:51;3.45;;;2.15;;
7471;SDS011;3777;48.722;8.110;2022-07-06T07:14:19;4.68;;;1.90;;
7471;SDS011;3777;48.722;8.110;2022-07-06T07:16:47;9.98;;;2.40;;
7471;SDS011;3777;48.722;8.110;2022-07-06T07:19:15;2.85;;;2.00;;
7471;SDS011;3777;48.722;8.110;2022-07-06T07:21:42;3.60;;;2.13;;
7471;SDS011;3777;48.722;8.110;2022-07-06T07:24:09;3.95;;;2.05;;
7471;SDS011;3777;48.722;8.110;2022-07-06T07:26:36;5.93;;;2.40;;
7471;SDS011;3777;48.722;8.110;2022-07-06T07:29:03;4.13;;;2.40;;
7471;SDS011;3777;48.722;8.110;2022-07-06T07:31:30;2.78;;;2.10;;
7471;SDS011;3777;48.722;8.110;2022-07-06T07:33:57;4.50;;;2.22;;
7471;SDS011;3777;48.722;8.110;2022-07-06T07:36:26;6.57;;;2.50;;
7471;SDS011;3777;48.722;8.110;2022-07-06T07:38:53;4.85;;;2.20;;
7471;SDS011;3777;48.722;8.110;2022-07-06T07:41:19;4.55;;;2.50;;
7471;SDS011;3777;48.722;8.110;2022-07-06T07:43:47;4.07;;;2.60;;
7471;SDS011;3777;48.722;8.110;2022-07-06T07:46:14;5.45;;;2.40;;
7471;SDS011;3777;48.722;8.110;2022-07-06T07:48:41;4.72;;;2.45;;
7471;SDS011;3777;48.722;8.110;2022-07-06T07:51:08;5.15;;;2.40;;
7471;SDS011;3777;48.722;8.110;2022-07-06T07:53:36;4.75;;;2.35;;
7471;SDS011;3777;48.722;8.110;2022-07-06T07:56:03;3.45;;;2.05;;
7471;SDS011;3777;48.722;8.110;2022-07-06T07:58:30;3.10;;;2.40;;
7471;SDS011;3777;48.722;8.110;2022-07-06T08:00:57;6.40;;;2.53;;
7471;SDS011;3777;48.722;8.110;2022-07-06T08:03:24;4.20;;;2.30;;
7471;SDS011;3777;48.722;8.110;2022-07-06T08:05:51;4.45;;;2.35;;
7471;SDS011;3777;48.722;8.110;2022-07-06T08:08:19;5.28;;;2.38;;
7471;SDS011;3777;48.722;8.110;2022-07-06T08:10:47;4.70;;;2.25;;
7471;SDS011;3777;48.722;8.110;2022-07-06T08:13:14;3.22;;;2.42;;
7471;SDS011;3777;48.722;8.110;2022-07-06T08:15:41;5.75;;;2.55;;
7471;SDS011;3777;48.722;8.110;2022-07-06T08:18:09;4.07;;;2.40;;
7471;SDS011;3777;48.722;8.110;2022-07-06T08:20:36;4.93;;;2.60;;
7471;SDS011;3777;48.722;8.110;2022-07-06T08:23:03;7.00;;;2.63;;
7471;SDS011;3777;48.722;8.110;2022-07-06T08:25:30;4.35;;;2.60;;
7471;SDS011;3777;48.722;8.110;2022-07-06T08:27:58;4.07;;;2.30;;
7471;SDS011;3777;48.722;8.110;2022-07-06T08:30:25;4.68;;;2.50;;
7471;SDS011;3777;48.722;8.110;2022-07-06T08:32:52;5.95;;;2.53;;
7471;SDS011;3777;48.722;8.110;2022-07-06T08:35:19;2.88;;;2.10;;
7471;SDS011;3777;48.722;8.110;2022-07-06T08:37:46;3.80;;;2.42;;
7471;SDS011;3777;48.722;8.110;2022-07-06T08:40:13;3.00;;;2.40;;
7471;SDS011;3777;48.722;8.110;2022-07-06T08:42:40;5.18;;;2.40;;
7471;SDS011;3777;48.722;8.110;2022-07-06T08:45:11;5.57;;;2.58;;
7471;SDS011;3777;48.722;8.110;2022-07-06T08:47:38;3.42;;;2.20;;
7471;SDS011;3777;48.722;8.110;2022-07-06T08:50:08;6.00;;;2.00;;
7471;SDS011;3777;48.722;8.110;2022-07-06T08:52:36;5.03;;;2.30;;
7471;SDS011;3777;48.722;8.110;2022-07-06T08:55:04;3.67;;;2.17;;
7471;SDS011;3777;48.722;8.110;2022-07-06T08:57:34;4.70;;;2.10;;
7471;SDS011;3777;48.722;8.110;2022-07-06T09:00:01;4.22;;;2.13;;
7471;SDS011;3777;48.722;8.110;2022-07-06T09:02:30;6.60;;;2.55;;
7471;SDS011;3777;48.722;8.110;2022-07-06T09:04:57;2.85;;;1.98;;
7471;SDS011;3777;48.722;8.110;2022-07-06T09:07:26;4.85;;;2.20;;
7471;SDS011;3777;48.722;8.110;2022-07-06T09:09:54;4.93;;;2.30;;
7471;SDS011;3777;48.722;8.110;2022-07-06T09:12:21;4.00;;;2.20;;
7471;SDS011;3777;48.722;8.110;2022-07-06T09:14:53;4.15;;;2.13;;
7471;SDS011;3777;48.722;8.110;2022-07-06T09:17:23;5.05;;;2.10;;
7471;SDS011;3777;48.722;8.110;2022-07-06T09:19:53;4.53;;;2.40;;
7471;SDS011;3777;48.722;8.110;2022-07-06T09:22:24;4.07;;;1.90;;
7471;SDS011;3777;48.722;8.110;2022-07-06T09:24:53;5.85;;;2.03;;
7471;SDS011;3777;48.722;8.110;2022-07-06T09:27:27;4.38;;;2.10;;
7471;SDS011;3777;48.722;8.110;2022-07-06T09:29:54;3.80;;;1.90;;
7471;SDS011;3777;48.722;8.110;2022-07-06T09:32:25;3.13;;;1.90;;
7471;SDS011;3777;48.722;8.110;2022-07-06T09:34:53;3.50;;;2.17;;
7471;SDS011;3777;48.722;8.110;2022-07-06T09:37:21;2.70;;;2.10;;
7471;SDS011;3777;48.722;8.110;2022-07-06T09:39:48;3.30;;;2.05;;
7471;SDS011;3777;48.722;8.110;2022-07-06T09:42:15;3.15;;;1.92;;
7471;SDS011;3777;48.722;8.110;2022-07-06T09:44:42;2.88;;;2.20;;
7471;SDS011;3777;48.722;8.110;2022-07-06T09:47:10;3.40;;;2.15;;
7471;SDS011;3777;48.722;8.110;2022-07-06T09:49:39;3.72;;;2.10;;
7471;SDS011;3777;48.722;8.110;2022-07-06T09:52:09;3.35;;;2.10;;
7471;SDS011;3777;48.722;8.110;2022-07-06T09:54:37;3.72;;;1.98;;
7471;SDS011;3777;48.722;8.110;2022-07-06T09:57:05;6.07;;;2.20;;
7471;SDS011;3777;48.722;8.110;2022-07-06T09:59:34;4.20;;;2.22;;
7471;SDS011;3777;48.722;8.110;2022-07-06T10:02:02;2.85;;;1.88;;
7471;SDS011;3777;48.722;8.110;2022-07-06T10:04:31;4.03;;;1.95;;
7471;SDS011;3777;48.722;8.110;2022-07-06T10:06:58;5.22;;;2.10;;
7471;SDS011;3777;48.722;8.110;2022-07-06T10:09:28;3.97;;;1.88;;
7471;SDS011;3777;48.722;8.110;2022-07-06T10:11:56;4.40;;;2.00;;
7471;SDS011;3777;48.722;8.110;2022-07-06T10:14:25;3.08;;;2.10;;
7471;SDS011;3777;48.722;8.110;2022-07-06T10:16:54;5.18;;;1.92;;
7471;SDS011;3777;48.722;8.110;2022-07-06T10:19:22;3.15;;;1.85;;
7471;SDS011;3777;48.722;8.110;2022-07-06T10:21:49;5.32;;;2.33;;
7471;SDS011;3777;48.722;8.110;2022-07-06T10:24:17;5.80;;;2.20;;
7471;SDS011;3777;48.722;8.110;2022-07-06T10:26:47;4.80;;;2.22;;
7471;SDS011;3777;48.722;8.110;2022-07-06T10:29:15;2.97;;;1.90;;
7471;SDS011;3777;48.722;8.110;2022-07-06T10:31:43;4.75;;;1.98;;
7471;SDS011;3777;48.722;8.110;2022-07-06T10:34:12;5.03;;;2.20;;
7471;SDS011;3777;48.722;8.110;2022-07-06T10:36:41;4.25;;;2.10;;
7471;SDS011;3777;48.722;8.110;2022-07-06T10:39:10;5.72;;;2.38;;
7471;SDS011;3777;48.722;8.110;2022-07-06T10:41:56;3.38;;;1.85;;
7471;SDS011;3777;48.722;8.110;2022-07-06T10:44:24;4.45;;;1.80;;
7471;SDS011;3777;48.722;8.110;2022-07-06T10:46:52;4.93;;;2.17;;
7471;SDS011;3777;48.722;8.110;2022-07-06T10:49:21;4.60;;;2.05;;
7471;SDS011;3777;48.722;8.110;2022-07-06T10:51:48;4.55;;;1.98;;
7471;SDS011;3777;48.722;8.110;2022-07-06T10:54:16;3.95;;;2.20;;
7471;SDS011;3777;48.722;8.110;2022-07-06T10:56:45;3.58;;;1.90;;
7471;SDS011;3777;48.722;8.110;2022-07-06T10:59:15;3.58;;;2.03;;
7471;SDS011;3777;48.722;8.110;2022-07-06T11:04:42;6.65;;;2.25;;
7471;SDS011;3777;48.722;8.110;2022-07-06T11:07:11;4.95;;;2.08;;
7471;SDS011;3777;48.722;8.110;2022-07-06T11:09:39;4.72;;;2.25;;
7471;SDS011;3777;48.722;8.110;2022-07-06T11:12:14;5.60;;;2.55;;
7471;SDS011;3777;48.722;8.110;2022-07-06T11:14:45;5.60;;;2.35;;
7471;SDS011;3777;48.722;8.110;2022-07-06T11:17:13;3.97;;;2.10;;
7471;SDS011;3777;48.722;8.110;2022-07-06T11:19:47;3.78;;;2.33;;
7471;SDS011;3777;48.722;8.110;2022-07-06T11:22:16;5.95;;;2.42;;
7471;SDS011;3777;48.722;8.110;2022-07-06T11:24:45;2.95;;;2.22;;
7471;SDS011;3777;48.722;8.110;2022-07-06T11:27:12;3.13;;;2.13;;
7471;SDS011;3777;48.722;8.110;2022-07-06T11:29:40;4.25;;;2.30;;
7471;SDS011;3777;48.722;8.110;2022-07-06T11:32:09;3.17;;;2.10;;
7471;SDS011;3777;48.722;8.110;2022-07-06T11:34:38;3.47;;;2.22;;
7471;SDS011;3777;48.722;8.110;2022-07-06T11:37:08;3.15;;;2.20;;
7471;SDS011;3777;48.722;8.110;2022-07-06T11:39:37;3.63;;;2.08;;
7471;SDS011;3777;48.722;8.110;2022-07-06T11:42:06;2.80;;;2.30;;
7471;SDS011;3777;48.722;8.110;2022-07-06T11:44:35;3.58;;;2.47;;
7471;SDS011;3777;48.722;8.110;2022-07-06T11:47:03;5.18;;;2.20;;
7471;SDS011;3777;48.722;8.110;2022-07-06T11:49:33;4.18;;;2.40;;
7471;SDS011;3777;48.722;8.110;2022-07-06T11:52:04;3.13;;;2.20;;
7471;SDS011;3777;48.722;8.110;2022-07-06T11:54:32;3.45;;;2.10;;
7471;SDS011;3777;48.722;8.110;2022-07-06T11:57:00;4.80;;;2.10;;
7471;SDS011;3777;48.722;8.110;2022-07-06T11:59:29;5.30;;;2.53;;
7471;SDS011;3777;48.722;8.110;2022-07-06T12:01:57;3.13;;;2.13;;
7471;SDS011;3777;48.722;8.110;2022-07-06T12:04:25;2.60;;;1.92;;
7471;SDS011;3777;48.722;8.110;2022-07-06T12:06:53;4.30;;;2.30;;
7471;SDS011;3777;48.722;8.110;2022-07-06T12:09:21;5.63;;;2.22;;
7471;SDS011;3777;48.722;8.110;2022-07-06T12:11:48;3.95;;;2.35;;
7471;SDS011;3777;48.722;8.110;2022-07-06T12:14:16;3.30;;;1.95;;
7471;SDS011;3777;48.722;8.110;2022-07-06T12:16:44;6.28;;;2.10;;
7471;SDS011;3777;48.722;8.110;2022-07-06T12:19:12;3.65;;;2.20;;
7471;SDS011;3777;48.722;8.110;2022-07-06T12:21:42;2.22;;;1.80;;
7471;SDS011;3777;48.722;8.110;2022-07-06T12:24:17;2.55;;;2.00;;
7471;SDS011;3777;48.722;8.110;2022-07-06T12:26:46;2.38;;;1.80;;
7471;SDS011;3777;48.722;8.110;2022-07-06T12:29:13;4.00;;;2.10;;
7471;SDS011;3777;48.722;8.110;2022-07-06T12:31:41;4.32;;;2.10;;
7471;SDS011;3777;48.722;8.110;2022-07-06T12:34:12;3.67;;;1.90;;
7471;SDS011;3777;48.722;8.110;2022-07-06T12:36:43;4.03;;;2.05;;
7471;SDS011;3777;48.722;8.110;2022-07-06T12:39:11;4.00;;;2.00;;
7471;SDS011;3777;48.722;8.110;2022-07-06T12:41:44;2.53;;;1.80;;
7471;SDS011;3777;48.722;8.110;2022-07-06T12:44:13;4.10;;;1.80;;
7471;SDS011;3777;48.722;8.110;2022-07-06T12:46:42;3.53;;;1.70;;
7471;SDS011;3777;48.722;8.110;2022-07-06T12:49:11;3.53;;;1.70;;
7471;SDS011;3777;48.722;8.110;2022-07-06T12:54:35;2.42;;;1.63;;
7471;SDS011;3777;48.722;8.110;2022-07-06T12:57:11;3.92;;;1.83;;
7471;SDS011;3777;48.722;8.110;2022-07-06T12:59:40;2.58;;;1.73;;
7471;SDS011;3777;48.722;8.110;2022-07-06T13:02:16;2.97;;;1.80;;
7471;SDS011;3777;48.722;8.110;2022-07-06T13:04:53;4.28;;;1.60;;
7471;SDS011;3777;48.722;8.110;2022-07-06T13:07:22;2.33;;;1.73;;
7471;SDS011;3777;48.722;8.110;2022-07-06T13:09:50;2.70;;;1.63;;
7471;SDS011;3777;48.722;8.110;2022-07-06T13:12:18;2.17;;;1.70;;
7471;SDS011;3777;48.722;8.110;2022-07-06T13:14:45;4.32;;;1.75;;
7471;SDS011;3777;48.722;8.110;2022-07-06T13:17:12;1.90;;;1.60;;
7471;SDS011;3777;48.722;8.110;2022-07-06T13:19:40;4.25;;;1.83;;
7471;SDS011;3777;48.722;8.110;2022-07-06T13:22:07;5.63;;;1.70;;
7471;SDS011;3777;48.722;8.110;2022-07-06T13:24:34;3.70;;;1.88;;
7471;SDS011;3777;48.722;8.110;2022-07-06T13:27:01;2.90;;;1.50;;
7471;SDS011;3777;48.722;8.110;2022-07-06T13:29:29;3.03;;;1.65;;
7471;SDS011;3777;48.722;8.110;2022-07-06T13:31:56;2.42;;;1.67;;
7471;SDS011;3777;48.722;8.110;2022-07-06T13:34:24;2.80;;;1.80;;
7471;SDS011;3777;48.722;8.110;2022-07-06T13:36:51;3.00;;;1.75;;
7471;SDS011;3777;48.722;8.110;2022-07-06T13:39:18;1.95;;;1.50;;
7471;SDS011;3777;48.722;8.110;2022-07-06T13:41:45;4.65;;;1.90;;
7471;SDS011;3777;48.722;8.110;2022-07-06T13:44:12;4.95;;;1.60;;
7471;SDS011;3777;48.722;8.110;2022-07-06T13:46:41;4.80;;;1.60;;
7471;SDS011;3777;48.722;8.110;2022-07-06T13:49:08;3.70;;;1.65;;
7471;SDS011;3777;48.722;8.110;2022-07-06T13:51:35;4.38;;;1.60;;
7471;SDS011;3777;48.722;8.110;2022-07-06T13:54:02;3.05;;;1.73;;
7471;SDS011;3777;48.722;8.110;2022-07-06T13:56:30;1.60;;;1.50;;
7471;SDS011;3777;48.722;8.110;2022-07-06T13:58:57;2.50;;;1.50;;
7471;SDS011;3777;48.722;8.110;2022-07-06T14:01:24;2.22;;;1.58;;
7471;SDS011;3777;48.722;8.110;2022-07-06T14:03:53;3.08;;;1.48;;
7471;SDS011;3777;48.722;8.110;2022-07-06T14:06:20;2.08;;;1.30;;
7471;SDS011;3777;48.722;8.110;2022-07-06T14:08:47;2.10;;;1.38;;
7471;SDS011;3777;48.722;8.110;2022-07-06T14:11:14;3.50;;;1.52;;
7471;SDS011;3777;48.722;8.110;2022-07-06T14:13:41;3.53;;;1.60;;
7471;SDS011;3777;48.722;8.110;2022-07-06T14:16:08;3.15;;;1.60;;
7471;SDS011;3777;48.722;8.110;2022-07-06T14:18:36;3.08;;;1.40;;
7471;SDS011;3777;48.722;8.110;2022-07-06T14:21:04;3.20;;;1.33;;
7471;SDS011;3777;48.722;8.110;2022-07-06T14:23:31;2.80;;;1.53;;
7471;SDS011;3777;48.722;8.110;2022-07-06T14:25:58;3.15;;;1.45;;
7471;SDS011;3777;48.722;8.110;2022-07-06T14:28:25;2.47;;;1.40;;
7471;SDS011;3777;48.722;8.110;2022-07-06T14:30:52;2.30;;;1.30;;
7471;SDS011;3777;48.722;8.110;2022-07-06T14:33:19;3.22;;;1.30;;
7471;SDS011;3777;48.722;8.110;2022-07-06T14:35:47;3.35;;;1.30;;
7471;SDS011;3777;48.722;8.110;2022-07-06T14:38:17;1.75;;;1.23;;
7471;SDS011;3777;48.722;8.110;2022-07-06T14:40:45;1.92;;;1.20;;
7471;SDS011;3777;48.722;8.110;2022-07-06T14:43:14;2.05;;;1.27;;
7471;SDS011;3777;48.722;8.110;2022-07-06T14:45:42;1.58;;;1.20;;
7471;SDS011;3777;48.722;8.110;2022-07-06T14:48:10;2.08;;;1.30;;
7471;SDS011;3777;48.722;8.110;2022-07-06T14:50:37;1.25;;;1.15;;
7471;SDS011;3777;48.722;8.110;2022-07-06T14:53:04;31.33;;;2.85;;
7471;SDS011;3777;48.722;8.110;2022-07-06T14:55:32;2.45;;;1.30;;
7471;SDS011;3777;48.722;8.110;2022-07-06T14:57:59;2.03;;;1.35;;
7471;SDS011;3777;48.722;8.110;2022-07-06T15:00:26;3.15;;;1.30;;
7471;SDS011;3777;48.722;8.110;2022-07-06T15:02:53;1.40;;;1.25;;
7471;SDS011;3777;48.722;8.110;2022-07-06T15:05:20;1.63;;;1.30;;
7471;SDS011;3777;48.722;8.110;2022-07-06T15:07:47;2.47;;;1.27;;
7471;SDS011;3777;48.722;8.110;2022-07-06T15:10:14;2.65;;;1.20;;
7471;SDS011;3777;48.722;8.110;2022-07-06T15:12:43;1.80;;;1.20;;
7471;SDS011;3777;48.722;8.110;2022-07-06T15:15:10;2.20;;;1.30;;
7471;SDS011;3777;48.722;8.110;2022-07-06T15:17:37;2.15;;;1.23;;
7471;SDS011;3777;48.722;8.110;2022-07-06T15:20:04;1.73;;;1.15;;
7471;SDS011;3777;48.722;8.110;2022-07-06T15:22:32;1.98;;;1.40;;
7471;SDS011;3777;48.722;8.110;2022-07-06T15:25:00;2.17;;;1.17;;